sensor_id;sensor_type;location;lat;lon;timestamp;P1;durP1;ratioP1;P2;durP2;ratioP2
21816;SDS011;13247;47.504;7.382;2024-03-02T00:02:26;8.93;;;5.65;;
21816;SDS011;13247;47.504;7.382;2024-03-02T00:05:14;8.75;;;5.40;;
21816;SDS011;13247;47.504;7.382;2024-03-02T00:08:06;16.27;;;7.63;;
21816;SDS011;13247;47.504;7.382;2024-03-02T00:10:52;12.45;;;6.57;;
21816;SDS011;13247;47.504;7.382;2024-03-02T00:13:41;10.18;;;6.82;;
21816;SDS011;13247;47.504;7.382;2024-03-02T00:16:29;7.70;;;5.07;;
21816;SDS011;13247;47.504;7.382;2024-03-02T00:19:15;10.57;;;5.05;;
21816;SDS011;13247;47.504;7.382;2024-03-02T00:22:00;8.77;;;5.55;;
21816;SDS011;13247;47.504;7.382;2024-03-02T00:24:46;5.65;;;4.47;;
21816;SDS011;13247;47.504;7.382;2024-03-02T00:27:31;7.28;;;4.72;;
21816;SDS011;13247;47.504;7.382;2024-03-02T00:33:41;6.90;;;3.70;;
21816;SDS011;13247;47.504;7.382;2024-03-02T00:36:27;5.72;;;3.58;;
21816;SDS011;13247;47.504;7.382;2024-03-02T00:39:12;6.05;;;3.83;;
21816;SDS011;13247;47.504;7.382;2024-03-02T00:42:00;9.68;;;5.03;;
21816;SDS011;13247;47.504;7.382;2024-03-02T00:44:45;10.00;;;4.07;;
21816;SDS011;13247;47.504;7.382;2024-03-02T00:47:31;11.90;;;4.28;;
21816;SDS011;13247;47.504;7.382;2024-03-02T00:50:21;8.25;;;4.20;;
21816;SDS011;13247;47.504;7.382;2024-03-02T00:53:05;7.00;;;3.85;;
21816;SDS011;13247;47.504;7.382;2024-03-02T00:55:53;6.57;;;3.83;;
21816;SDS011;13247;47.504;7.382;2024-03-02T00:58:38;5.93;;;3.70;;
21816;SDS011;13247;47.504;7.382;2024-03-02T01:01:23;4.72;;;3.63;;
21816;SDS011;13247;47.504;7.382;2024-03-02T01:04:08;9.60;;;3.65;;
21816;SDS011;13247;47.504;7.382;2024-03-02T01:06:53;6.25;;;3.35;;
21816;SDS011;13247;47.504;7.382;2024-03-02T01:09:38;4.07;;;3.40;;
21816;SDS011;13247;47.504;7.382;2024-03-02T01:12:24;6.25;;;3.45;;
21816;SDS011;13247;47.504;7.382;2024-03-02T01:15:09;8.33;;;4.77;;
21816;SDS011;13247;47.504;7.382;2024-03-02T01:17:55;6.82;;;3.88;;
21816;SDS011;13247;47.504;7.382;2024-03-02T01:20:39;7.45;;;4.18;;
21816;SDS011;13247;47.504;7.382;2024-03-02T01:23:24;10.15;;;4.65;;
21816;SDS011;13247;47.504;7.382;2024-03-02T01:26:10;7.00;;;3.83;;
21816;SDS011;13247;47.504;7.382;2024-03-02T01:28:55;11.50;;;4.30;;
21816;SDS011;13247;47.504;7.382;2024-03-02T01:31:39;8.77;;;3.75;;
21816;SDS011;13247;47.504;7.382;2024-03-02T01:34:25;9.65;;;3.60;;
21816;SDS011;13247;47.504;7.382;2024-03-02T01:37:10;5.32;;;3.35;;
21816;SDS011;13247;47.504;7.382;2024-03-02T01:39:55;7.80;;;3.65;;
21816;SDS011;13247;47.504;7.382;2024-03-02T01:42:39;3.20;;;2.70;;
21816;SDS011;13247;47.504;7.382;2024-03-02T01:45:24;5.72;;;3.60;;
21816;SDS011;13247;47.504;7.382;2024-03-02T01:48:09;4.90;;;3.13;;
21816;SDS011;13247;47.504;7.382;2024-03-02T01:50:53;10.88;;;4.60;;
21816;SDS011;13247;47.504;7.382;2024-03-02T01:53:39;10.30;;;4.78;;
21816;SDS011;13247;47.504;7.382;2024-03-02T01:56:23;6.85;;;4.40;;
21816;SDS011;13247;47.504;7.382;2024-03-02T01:59:08;8.25;;;3.85;;
21816;SDS011;13247;47.504;7.382;2024-03-02T02:01:52;4.95;;;3.90;;
21816;SDS011;13247;47.504;7.382;2024-03-02T02:04:37;7.60;;;3.88;;
21816;SDS011;13247;47.504;7.382;2024-03-02T02:07:21;7.30;;;4.57;;
21816;SDS011;13247;47.504;7.382;2024-03-02T02:10:06;9.07;;;4.28;;
21816;SDS011;13247;47.504;7.382;2024-03-02T02:12:51;6.18;;;3.80;;
21816;SDS011;13247;47.504;7.382;2024-03-02T02:15:36;7.90;;;4.07;;
21816;SDS011;13247;47.504;7.382;2024-03-02T02:18:21;9.75;;;4.70;;
21816;SDS011;13247;47.504;7.382;2024-03-02T02:21:06;12.82;;;4.15;;
21816;SDS011;13247;47.504;7.382;2024-03-02T02:23:51;5.13;;;3.00;;
21816;SDS011;13247;47.504;7.382;2024-03-02T02:26:36;6.93;;;3.85;;
21816;SDS011;13247;47.504;7.382;2024-03-02T02:29:20;6.95;;;3.80;;
21816;SDS011;13247;47.504;7.382;2024-03-02T02:32:05;5.57;;;3.05;;
21816;SDS011;13247;47.504;7.382;2024-03-02T02:34:53;4.32;;;3.25;;
21816;SDS011;13247;47.504;7.382;2024-03-02T02:37:38;9.35;;;4.20;;
21816;SDS011;13247;47.504;7.382;2024-03-02T02:40:23;6.53;;;3.42;;
21816;SDS011;13247;47.504;7.382;2024-03-02T02:43:07;6.68;;;4.28;;
21816;SDS011;13247;47.504;7.382;2024-03-02T02:45:52;4.60;;;3.67;;
21816;SDS011;13247;47.504;7.382;2024-03-02T02:48:37;8.50;;;3.97;;
21816;SDS011;13247;47.504;7.382;2024-03-02T02:51:21;4.65;;;3.72;;
21816;SDS011;13247;47.504;7.382;2024-03-02T02:54:07;5.47;;;3.65;;
21816;SDS011;13247;47.504;7.382;2024-03-02T02:56:52;9.80;;;4.05;;
21816;SDS011;13247;47.504;7.382;2024-03-02T02:59:36;4.53;;;3.22;;
21816;SDS011;13247;47.504;7.382;2024-03-02T03:02:21;4.00;;;3.08;;
21816;SDS011;13247;47.504;7.382;2024-03-02T03:05:06;6.15;;;3.20;;
21816;SDS011;13247;47.504;7.382;2024-03-02T03:07:51;3.42;;;2.47;;
21816;SDS011;13247;47.504;7.382;2024-03-02T03:10:36;5.13;;;3.08;;
21816;SDS011;13247;47.504;7.382;2024-03-02T03:13:21;4.45;;;2.33;;
21816;SDS011;13247;47.504;7.382;2024-03-02T03:16:06;4.95;;;3.00;;
21816;SDS011;13247;47.504;7.382;2024-03-02T03:18:51;4.70;;;3.30;;
21816;SDS011;13247;47.504;7.382;2024-03-02T03:21:37;4.57;;;2.40;;
21816;SDS011;13247;47.504;7.382;2024-03-02T03:24:22;7.20;;;3.67;;
21816;SDS011;13247;47.504;7.382;2024-03-02T03:27:06;3.45;;;2.30;;
21816;SDS011;13247;47.504;7.382;2024-03-02T03:29:50;3.03;;;2.35;;
21816;SDS011;13247;47.504;7.382;2024-03-02T03:32:36;4.90;;;2.40;;
21816;SDS011;13247;47.504;7.382;2024-03-02T03:35:20;8.52;;;3.28;;
21816;SDS011;13247;47.504;7.382;2024-03-02T03:38:06;4.60;;;2.83;;
21816;SDS011;13247;47.504;7.382;2024-03-02T03:40:51;4.32;;;2.88;;
21816;SDS011;13247;47.504;7.382;2024-03-02T03:43:35;5.30;;;3.22;;
21816;SDS011;13247;47.504;7.382;2024-03-02T03:46:20;5.45;;;3.20;;
21816;SDS011;13247;47.504;7.382;2024-03-02T03:49:05;8.80;;;4.38;;
21816;SDS011;13247;47.504;7.382;2024-03-02T03:51:51;6.10;;;3.97;;
21816;SDS011;13247;47.504;7.382;2024-03-02T03:54:35;4.97;;;2.80;;
21816;SDS011;13247;47.504;7.382;2024-03-02T03:57:21;3.78;;;2.60;;
21816;SDS011;13247;47.504;7.382;2024-03-02T04:00:06;4.63;;;2.65;;
21816;SDS011;13247;47.504;7.382;2024-03-02T04:02:54;3.88;;;2.92;;
21816;SDS011;13247;47.504;7.382;2024-03-02T04:05:38;3.30;;;1.90;;
21816;SDS011;13247;47.504;7.382;2024-03-02T04:08:23;3.55;;;2.15;;
21816;SDS011;13247;47.504;7.382;2024-03-02T04:11:08;2.25;;;1.58;;
21816;SDS011;13247;47.504;7.382;2024-03-02T04:13:53;4.20;;;2.30;;
21816;SDS011;13247;47.504;7.382;2024-03-02T04:16:37;2.42;;;1.90;;
21816;SDS011;13247;47.504;7.382;2024-03-02T04:19:22;4.88;;;1.98;;
21816;SDS011;13247;47.504;7.382;2024-03-02T04:22:07;5.25;;;2.47;;
21816;SDS011;13247;47.504;7.382;2024-03-02T04:24:51;2.20;;;1.60;;
21816;SDS011;13247;47.504;7.382;2024-03-02T04:27:36;2.72;;;1.83;;
21816;SDS011;13247;47.504;7.382;2024-03-02T04:30:21;3.88;;;1.90;;
21816;SDS011;13247;47.504;7.382;2024-03-02T04:33:05;5.32;;;1.90;;
21816;SDS011;13247;47.504;7.382;2024-03-02T04:35:53;1.92;;;1.48;;
21816;SDS011;13247;47.504;7.382;2024-03-02T04:38:38;1.38;;;1.27;;
21816;SDS011;13247;47.504;7.382;2024-03-02T04:41:23;1.63;;;1.20;;
21816;SDS011;13247;47.504;7.382;2024-03-02T04:44:07;2.35;;;1.67;;
21816;SDS011;13247;47.504;7.382;2024-03-02T04:46:52;1.40;;;1.30;;
21816;SDS011;13247;47.504;7.382;2024-03-02T04:49:36;2.15;;;1.45;;
21816;SDS011;13247;47.504;7.382;2024-03-02T04:52:21;2.35;;;1.20;;
21816;SDS011;13247;47.504;7.382;2024-03-02T04:55:06;2.85;;;1.50;;
21816;SDS011;13247;47.504;7.382;2024-03-02T04:57:57;4.60;;;0.95;;
21816;SDS011;13247;47.504;7.382;2024-03-02T05:00:42;2.22;;;1.20;;
21816;SDS011;13247;47.504;7.382;2024-03-02T05:03:30;3.40;;;1.75;;
21816;SDS011;13247;47.504;7.382;2024-03-02T05:06:18;2.85;;;1.27;;
21816;SDS011;13247;47.504;7.382;2024-03-02T05:09:02;2.10;;;1.20;;
21816;SDS011;13247;47.504;7.382;2024-03-02T05:11:46;1.77;;;1.23;;
21816;SDS011;13247;47.504;7.382;2024-03-02T05:14:53;1.13;;;1.02;;
21816;SDS011;13247;47.504;7.382;2024-03-02T05:17:37;6.95;;;1.42;;
21816;SDS011;13247;47.504;7.382;2024-03-02T05:20:23;2.40;;;1.30;;
21816;SDS011;13247;47.504;7.382;2024-03-02T05:23:07;1.30;;;1.20;;
21816;SDS011;13247;47.504;7.382;2024-03-02T05:25:52;1.48;;;1.10;;
21816;SDS011;13247;47.504;7.382;2024-03-02T05:28:36;2.10;;;1.13;;
21816;SDS011;13247;47.504;7.382;2024-03-02T05:31:21;1.50;;;1.20;;
21816;SDS011;13247;47.504;7.382;2024-03-02T05:34:05;1.30;;;1.20;;
21816;SDS011;13247;47.504;7.382;2024-03-02T05:36:50;3.55;;;1.63;;
21816;SDS011;13247;47.504;7.382;2024-03-02T05:39:34;2.20;;;1.67;;
21816;SDS011;13247;47.504;7.382;2024-03-02T05:42:19;2.97;;;1.70;;
21816;SDS011;13247;47.504;7.382;2024-03-02T05:45:04;3.35;;;2.03;;
21816;SDS011;13247;47.504;7.382;2024-03-02T05:47:49;2.13;;;1.83;;
21816;SDS011;13247;47.504;7.382;2024-03-02T05:50:33;2.72;;;2.22;;
21816;SDS011;13247;47.504;7.382;2024-03-02T05:53:18;5.55;;;2.50;;
21816;SDS011;13247;47.504;7.382;2024-03-02T05:56:03;5.57;;;2.38;;
21816;SDS011;13247;47.504;7.382;2024-03-02T05:58:49;5.60;;;2.85;;
21816;SDS011;13247;47.504;7.382;2024-03-02T06:01:52;6.00;;;2.88;;
21816;SDS011;13247;47.504;7.382;2024-03-02T06:04:38;4.85;;;2.20;;
21816;SDS011;13247;47.504;7.382;2024-03-02T06:07:22;9.88;;;2.80;;
21816;SDS011;13247;47.504;7.382;2024-03-02T06:10:07;8.00;;;2.55;;
21816;SDS011;13247;47.504;7.382;2024-03-02T06:12:52;4.28;;;2.28;;
21816;SDS011;13247;47.504;7.382;2024-03-02T06:15:36;4.78;;;2.28;;
21816;SDS011;13247;47.504;7.382;2024-03-02T06:18:21;3.60;;;2.10;;
21816;SDS011;13247;47.504;7.382;2024-03-02T06:21:05;4.38;;;2.35;;
21816;SDS011;13247;47.504;7.382;2024-03-02T06:23:50;3.92;;;2.63;;
21816;SDS011;13247;47.504;7.382;2024-03-02T06:26:34;3.15;;;2.15;;
21816;SDS011;13247;47.504;7.382;2024-03-02T06:29:19;3.00;;;1.90;;
21816;SDS011;13247;47.504;7.382;2024-03-02T06:32:05;3.53;;;1.95;;
21816;SDS011;13247;47.504;7.382;2024-03-02T06:34:50;3.20;;;1.73;;
21816;SDS011;13247;47.504;7.382;2024-03-02T06:37:35;1.65;;;1.42;;
21816;SDS011;13247;47.504;7.382;2024-03-02T06:40:21;2.85;;;1.65;;
21816;SDS011;13247;47.504;7.382;2024-03-02T06:43:06;2.22;;;1.58;;
21816;SDS011;13247;47.504;7.382;2024-03-02T06:45:51;3.15;;;1.55;;
21816;SDS011;13247;47.504;7.382;2024-03-02T06:48:35;2.35;;;1.45;;
21816;SDS011;13247;47.504;7.382;2024-03-02T06:51:20;8.27;;;4.50;;
21816;SDS011;13247;47.504;7.382;2024-03-02T06:54:05;6.07;;;3.45;;
21816;SDS011;13247;47.504;7.382;2024-03-02T06:56:52;6.18;;;3.28;;
21816;SDS011;13247;47.504;7.382;2024-03-02T06:59:36;4.05;;;2.47;;
21816;SDS011;13247;47.504;7.382;2024-03-02T07:02:21;5.47;;;2.67;;
21816;SDS011;13247;47.504;7.382;2024-03-02T07:05:06;2.33;;;1.70;;
21816;SDS011;13247;47.504;7.382;2024-03-02T07:07:51;6.15;;;2.95;;
21816;SDS011;13247;47.504;7.382;2024-03-02T07:10:36;3.13;;;2.17;;
21816;SDS011;13247;47.504;7.382;2024-03-02T07:13:21;4.53;;;2.45;;
21816;SDS011;13247;47.504;7.382;2024-03-02T07:16:05;8.05;;;4.13;;
21816;SDS011;13247;47.504;7.382;2024-03-02T07:19:11;8.30;;;4.63;;
21816;SDS011;13247;47.504;7.382;2024-03-02T07:21:56;4.43;;;3.50;;
21816;SDS011;13247;47.504;7.382;2024-03-02T07:24:43;6.78;;;3.08;;
21816;SDS011;13247;47.504;7.382;2024-03-02T07:27:30;5.07;;;2.88;;
21816;SDS011;13247;47.504;7.382;2024-03-02T07:30:15;4.95;;;2.95;;
21816;SDS011;13247;47.504;7.382;2024-03-02T07:33:00;4.18;;;3.13;;
21816;SDS011;13247;47.504;7.382;2024-03-02T07:35:44;3.00;;;2.47;;
21816;SDS011;13247;47.504;7.382;2024-03-02T07:38:29;6.53;;;3.10;;
21816;SDS011;13247;47.504;7.382;2024-03-02T07:41:15;6.10;;;2.85;;
21816;SDS011;13247;47.504;7.382;2024-03-02T07:43:59;7.88;;;4.25;;
21816;SDS011;13247;47.504;7.382;2024-03-02T07:46:44;9.00;;;4.68;;
21816;SDS011;13247;47.504;7.382;2024-03-02T07:49:35;7.18;;;4.07;;
21816;SDS011;13247;47.504;7.382;2024-03-02T07:52:20;6.03;;;2.97;;
21816;SDS011;13247;47.504;7.382;2024-03-02T07:55:05;9.88;;;5.82;;
21816;SDS011;13247;47.504;7.382;2024-03-02T07:57:50;8.73;;;4.93;;
21816;SDS011;13247;47.504;7.382;2024-03-02T08:00:35;6.43;;;3.20;;
21816;SDS011;13247;47.504;7.382;2024-03-02T08:03:19;4.63;;;2.97;;
21816;SDS011;13247;47.504;7.382;2024-03-02T08:06:04;5.78;;;3.42;;
21816;SDS011;13247;47.504;7.382;2024-03-02T08:08:49;3.92;;;2.78;;
21816;SDS011;13247;47.504;7.382;2024-03-02T08:11:33;7.30;;;4.18;;
21816;SDS011;13247;47.504;7.382;2024-03-02T08:14:19;5.22;;;3.55;;
21816;SDS011;13247;47.504;7.382;2024-03-02T08:17:03;4.60;;;3.17;;
21816;SDS011;13247;47.504;7.382;2024-03-02T08:19:52;5.78;;;3.28;;
21816;SDS011;13247;47.504;7.382;2024-03-02T08:22:37;6.30;;;2.75;;
21816;SDS011;13247;47.504;7.382;2024-03-02T08:25:23;5.55;;;2.92;;
21816;SDS011;13247;47.504;7.382;2024-03-02T08:28:07;4.78;;;3.22;;
21816;SDS011;13247;47.504;7.382;2024-03-02T08:30:52;5.53;;;3.35;;
21816;SDS011;13247;47.504;7.382;2024-03-02T08:33:36;13.35;;;7.35;;
21816;SDS011;13247;47.504;7.382;2024-03-02T08:36:21;15.38;;;7.22;;
21816;SDS011;13247;47.504;7.382;2024-03-02T08:39:07;9.95;;;5.00;;
21816;SDS011;13247;47.504;7.382;2024-03-02T08:41:58;9.55;;;5.28;;
21816;SDS011;13247;47.504;7.382;2024-03-02T08:44:44;7.43;;;4.60;;
21816;SDS011;13247;47.504;7.382;2024-03-02T08:47:28;8.40;;;4.10;;
21816;SDS011;13247;47.504;7.382;2024-03-02T08:50:13;8.48;;;4.47;;
21816;SDS011;13247;47.504;7.382;2024-03-02T08:52:57;12.90;;;5.25;;
21816;SDS011;13247;47.504;7.382;2024-03-02T08:55:42;11.90;;;5.28;;
21816;SDS011;13247;47.504;7.382;2024-03-02T08:58:27;6.47;;;4.30;;
21816;SDS011;13247;47.504;7.382;2024-03-02T09:01:11;8.15;;;4.20;;
21816;SDS011;13247;47.504;7.382;2024-03-02T09:03:56;7.38;;;4.00;;
21816;SDS011;13247;47.504;7.382;2024-03-02T09:06:41;6.13;;;3.75;;
21816;SDS011;13247;47.504;7.382;2024-03-02T09:09:25;14.75;;;4.00;;
21816;SDS011;13247;47.504;7.382;2024-03-02T09:12:10;4.95;;;3.97;;
21816;SDS011;13247;47.504;7.382;2024-03-02T09:14:55;5.20;;;3.53;;
21816;SDS011;13247;47.504;7.382;2024-03-02T09:17:40;8.70;;;3.58;;
21816;SDS011;13247;47.504;7.382;2024-03-02T09:20:24;4.15;;;2.47;;
21816;SDS011;13247;47.504;7.382;2024-03-02T09:23:09;4.93;;;2.20;;
21816;SDS011;13247;47.504;7.382;2024-03-02T09:25:53;3.97;;;2.90;;
21816;SDS011;13247;47.504;7.382;2024-03-02T09:28:38;7.03;;;2.88;;
21816;SDS011;13247;47.504;7.382;2024-03-02T09:31:26;4.05;;;3.10;;
21816;SDS011;13247;47.504;7.382;2024-03-02T09:34:10;2.40;;;2.03;;
21816;SDS011;13247;47.504;7.382;2024-03-02T09:36:58;2.58;;;1.67;;
21816;SDS011;13247;47.504;7.382;2024-03-02T09:39:43;3.13;;;1.75;;
21816;SDS011;13247;47.504;7.382;2024-03-02T09:42:29;3.00;;;1.15;;
21816;SDS011;13247;47.504;7.382;2024-03-02T09:45:13;1.10;;;1.00;;
21816;SDS011;13247;47.504;7.382;2024-03-02T09:47:59;0.93;;;0.90;;
21816;SDS011;13247;47.504;7.382;2024-03-02T09:50:44;1.98;;;1.00;;
21816;SDS011;13247;47.504;7.382;2024-03-02T09:53:30;2.42;;;0.88;;
21816;SDS011;13247;47.504;7.382;2024-03-02T09:56:16;2.35;;;1.10;;
21816;SDS011;13247;47.504;7.382;2024-03-02T09:59:04;1.67;;;1.08;;
21816;SDS011;13247;47.504;7.382;2024-03-02T10:01:56;0.70;;;0.70;;
21816;SDS011;13247;47.504;7.382;2024-03-02T10:04:44;1.20;;;0.82;;
21816;SDS011;13247;47.504;7.382;2024-03-02T10:07:30;0.70;;;0.70;;
21816;SDS011;13247;47.504;7.382;2024-03-02T10:10:15;1.15;;;0.88;;
21816;SDS011;13247;47.504;7.382;2024-03-02T10:13:04;3.70;;;1.00;;
21816;SDS011;13247;47.504;7.382;2024-03-02T10:15:50;0.80;;;0.70;;
21816;SDS011;13247;47.504;7.382;2024-03-02T10:18:34;0.70;;;0.70;;
21816;SDS011;13247;47.504;7.382;2024-03-02T10:21:19;0.70;;;0.63;;
21816;SDS011;13247;47.504;7.382;2024-03-02T10:24:07;0.80;;;0.65;;
21816;SDS011;13247;47.504;7.382;2024-03-02T10:26:52;1.33;;;0.70;;
21816;SDS011;13247;47.504;7.382;2024-03-02T10:29:38;2.08;;;0.90;;
21816;SDS011;13247;47.504;7.382;2024-03-02T10:32:24;1.20;;;0.70;;
21816;SDS011;13247;47.504;7.382;2024-03-02T10:35:10;1.23;;;0.90;;
21816;SDS011;13247;47.504;7.382;2024-03-02T10:37:55;1.20;;;1.00;;
21816;SDS011;13247;47.504;7.382;2024-03-02T10:40:46;4.75;;;3.30;;
21816;SDS011;13247;47.504;7.382;2024-03-02T10:43:32;3.67;;;1.27;;
21816;SDS011;13247;47.504;7.382;2024-03-02T10:46:18;3.13;;;1.90;;
21816;SDS011;13247;47.504;7.382;2024-03-02T10:49:04;2.08;;;1.48;;
21816;SDS011;13247;47.504;7.382;2024-03-02T10:51:50;0.98;;;0.85;;
21816;SDS011;13247;47.504;7.382;2024-03-02T10:54:34;3.92;;;2.22;;
21816;SDS011;13247;47.504;7.382;2024-03-02T10:57:23;2.35;;;1.50;;
21816;SDS011;13247;47.504;7.382;2024-03-02T11:00:16;2.20;;;1.42;;
21816;SDS011;13247;47.504;7.382;2024-03-02T11:03:06;2.00;;;1.05;;
21816;SDS011;13247;47.504;7.382;2024-03-02T11:05:54;1.33;;;1.10;;
21816;SDS011;13247;47.504;7.382;2024-03-02T11:08:40;1.40;;;1.00;;
21816;SDS011;13247;47.504;7.382;2024-03-02T11:11:28;0.70;;;0.70;;
21816;SDS011;13247;47.504;7.382;2024-03-02T11:14:18;1.55;;;1.08;;
21816;SDS011;13247;47.504;7.382;2024-03-02T11:17:08;2.85;;;2.00;;
21816;SDS011;13247;47.504;7.382;2024-03-02T11:19:53;2.97;;;2.15;;
21816;SDS011;13247;47.504;7.382;2024-03-02T11:22:39;5.65;;;2.50;;
21816;SDS011;13247;47.504;7.382;2024-03-02T11:25:24;2.13;;;1.80;;
21816;SDS011;13247;47.504;7.382;2024-03-02T11:28:10;4.00;;;2.50;;
21816;SDS011;13247;47.504;7.382;2024-03-02T11:30:55;5.43;;;2.78;;
21816;SDS011;13247;47.504;7.382;2024-03-02T11:33:39;3.65;;;2.47;;
21816;SDS011;13247;47.504;7.382;2024-03-02T11:36:24;5.43;;;2.75;;
21816;SDS011;13247;47.504;7.382;2024-03-02T11:39:08;3.92;;;2.50;;
21816;SDS011;13247;47.504;7.382;2024-03-02T11:41:53;4.10;;;2.33;;
21816;SDS011;13247;47.504;7.382;2024-03-02T11:44:38;2.30;;;1.52;;
21816;SDS011;13247;47.504;7.382;2024-03-02T11:47:25;8.05;;;1.05;;
21816;SDS011;13247;47.504;7.382;2024-03-02T11:50:36;1.80;;;1.38;;
21816;SDS011;13247;47.504;7.382;2024-03-02T11:53:25;0.82;;;0.82;;
21816;SDS011;13247;47.504;7.382;2024-03-02T11:56:15;3.47;;;1.70;;
21816;SDS011;13247;47.504;7.382;2024-03-02T11:59:02;2.28;;;1.70;;
21816;SDS011;13247;47.504;7.382;2024-03-02T12:01:47;2.60;;;1.40;;
21816;SDS011;13247;47.504;7.382;2024-03-02T12:04:32;2.47;;;1.70;;
21816;SDS011;13247;47.504;7.382;2024-03-02T12:07:18;3.28;;;1.95;;
21816;SDS011;13247;47.504;7.382;2024-03-02T12:10:07;1.77;;;1.67;;
21816;SDS011;13247;47.504;7.382;2024-03-02T12:12:58;2.78;;;2.10;;
21816;SDS011;13247;47.504;7.382;2024-03-02T12:15:44;2.00;;;1.60;;
21816;SDS011;13247;47.504;7.382;2024-03-02T12:18:28;3.78;;;1.30;;
21816;SDS011;13247;47.504;7.382;2024-03-02T12:21:13;3.13;;;1.75;;
21816;SDS011;13247;47.504;7.382;2024-03-02T12:23:57;2.72;;;1.60;;
21816;SDS011;13247;47.504;7.382;2024-03-02T12:26:42;2.67;;;1.70;;
21816;SDS011;13247;47.504;7.382;2024-03-02T12:29:28;1.92;;;1.33;;
21816;SDS011;13247;47.504;7.382;2024-03-02T12:32:13;3.17;;;1.45;;
21816;SDS011;13247;47.504;7.382;2024-03-02T12:34:59;2.63;;;1.40;;
21816;SDS011;13247;47.504;7.382;2024-03-02T12:37:44;4.13;;;1.85;;
21816;SDS011;13247;47.504;7.382;2024-03-02T12:40:30;2.40;;;1.70;;
21816;SDS011;13247;47.504;7.382;2024-03-02T12:43:15;1.65;;;1.38;;
21816;SDS011;13247;47.504;7.382;2024-03-02T12:46:00;3.95;;;1.85;;
21816;SDS011;13247;47.504;7.382;2024-03-02T12:48:45;2.80;;;1.83;;
21816;SDS011;13247;47.504;7.382;2024-03-02T12:51:30;3.75;;;2.30;;
21816;SDS011;13247;47.504;7.382;2024-03-02T12:54:15;3.28;;;2.03;;
21816;SDS011;13247;47.504;7.382;2024-03-02T12:56:59;3.22;;;1.90;;
21816;SDS011;13247;47.504;7.382;2024-03-02T12:59:45;2.67;;;1.63;;
21816;SDS011;13247;47.504;7.382;2024-03-02T13:02:31;3.53;;;1.70;;
21816;SDS011;13247;47.504;7.382;2024-03-02T13:05:15;2.40;;;1.80;;
21816;SDS011;13247;47.504;7.382;2024-03-02T13:08:00;1.52;;;1.20;;
21816;SDS011;13247;47.504;7.382;2024-03-02T13:10:48;2.17;;;1.30;;
21816;SDS011;13247;47.504;7.382;2024-03-02T13:13:33;1.95;;;1.40;;
21816;SDS011;13247;47.504;7.382;2024-03-02T13:16:18;3.00;;;1.30;;
21816;SDS011;13247;47.504;7.382;2024-03-02T13:19:03;2.05;;;1.30;;
21816;SDS011;13247;47.504;7.382;2024-03-02T13:21:51;3.33;;;1.48;;
21816;SDS011;13247;47.504;7.382;2024-03-02T13:24:35;0.60;;;0.60;;
21816;SDS011;13247;47.504;7.382;2024-03-02T13:27:20;0.77;;;0.60;;
21816;SDS011;13247;47.504;7.382;2024-03-02T13:30:05;0.50;;;0.50;;
21816;SDS011;13247;47.504;7.382;2024-03-02T13:32:52;1.38;;;0.90;;
21816;SDS011;13247;47.504;7.382;2024-03-02T13:35:37;1.08;;;0.88;;
21816;SDS011;13247;47.504;7.382;2024-03-02T13:38:22;1.50;;;0.95;;
21816;SDS011;13247;47.504;7.382;2024-03-02T13:41:06;2.17;;;1.40;;
21816;SDS011;13247;47.504;7.382;2024-03-02T13:43:51;1.45;;;0.88;;
21816;SDS011;13247;47.504;7.382;2024-03-02T13:46:37;5.30;;;1.05;;
21816;SDS011;13247;47.504;7.382;2024-03-02T13:49:22;1.38;;;0.95;;
21816;SDS011;13247;47.504;7.382;2024-03-02T13:52:06;0.93;;;0.85;;
21816;SDS011;13247;47.504;7.382;2024-03-02T13:54:56;2.90;;;1.30;;
21816;SDS011;13247;47.504;7.382;2024-03-02T13:57:41;2.95;;;0.88;;
21816;SDS011;13247;47.504;7.382;2024-03-02T14:00:25;1.17;;;1.05;;
21816;SDS011;13247;47.504;7.382;2024-03-02T14:03:10;1.45;;;0.90;;
21816;SDS011;13247;47.504;7.382;2024-03-02T14:05:54;0.70;;;0.70;;
21816;SDS011;13247;47.504;7.382;2024-03-02T14:08:39;0.93;;;0.68;;
21816;SDS011;13247;47.504;7.382;2024-03-02T14:11:28;0.68;;;0.68;;
21816;SDS011;13247;47.504;7.382;2024-03-02T14:14:12;1.27;;;1.10;;
21816;SDS011;13247;47.504;7.382;2024-03-02T14:16:57;1.73;;;1.10;;
21816;SDS011;13247;47.504;7.382;2024-03-02T14:19:49;1.50;;;1.40;;
21816;SDS011;13247;47.504;7.382;2024-03-02T14:22:34;1.58;;;1.25;;
21816;SDS011;13247;47.504;7.382;2024-03-02T14:25:21;1.48;;;0.90;;
21816;SDS011;13247;47.504;7.382;2024-03-02T14:28:05;1.27;;;1.13;;
21816;SDS011;13247;47.504;7.382;2024-03-02T14:30:50;2.75;;;1.50;;
21816;SDS011;13247;47.504;7.382;2024-03-02T14:33:34;1.95;;;1.45;;
21816;SDS011;13247;47.504;7.382;2024-03-02T14:36:19;1.67;;;1.33;;
21816;SDS011;13247;47.504;7.382;2024-03-02T14:39:04;1.40;;;1.13;;
21816;SDS011;13247;47.504;7.382;2024-03-02T14:41:52;1.10;;;1.00;;
21816;SDS011;13247;47.504;7.382;2024-03-02T14:44:38;1.30;;;0.98;;
21816;SDS011;13247;47.504;7.382;2024-03-02T14:47:23;1.95;;;0.90;;
21816;SDS011;13247;47.504;7.382;2024-03-02T14:50:08;1.45;;;1.00;;
21816;SDS011;13247;47.504;7.382;2024-03-02T14:52:53;1.17;;;0.95;;
21816;SDS011;13247;47.504;7.382;2024-03-02T14:55:41;2.80;;;0.90;;
21816;SDS011;13247;47.504;7.382;2024-03-02T14:58:25;3.05;;;1.95;;
21816;SDS011;13247;47.504;7.382;2024-03-02T15:01:10;7.80;;;3.83;;
21816;SDS011;13247;47.504;7.382;2024-03-02T15:03:55;3.33;;;2.35;;
21816;SDS011;13247;47.504;7.382;2024-03-02T15:06:39;3.95;;;1.40;;
21816;SDS011;13247;47.504;7.382;2024-03-02T15:09:24;2.05;;;1.40;;
21816;SDS011;13247;47.504;7.382;2024-03-02T15:12:09;1.92;;;1.30;;
21816;SDS011;13247;47.504;7.382;2024-03-02T15:14:56;2.45;;;1.60;;
21816;SDS011;13247;47.504;7.382;2024-03-02T15:17:40;5.07;;;2.20;;
21816;SDS011;13247;47.504;7.382;2024-03-02T15:20:25;5.45;;;3.20;;
21816;SDS011;13247;47.504;7.382;2024-03-02T15:23:10;2.33;;;1.65;;
21816;SDS011;13247;47.504;7.382;2024-03-02T15:25:55;2.10;;;1.90;;
21816;SDS011;13247;47.504;7.382;2024-03-02T15:28:40;6.50;;;3.90;;
21816;SDS011;13247;47.504;7.382;2024-03-02T15:31:25;4.40;;;2.40;;
21816;SDS011;13247;47.504;7.382;2024-03-02T15:34:09;3.45;;;2.20;;
21816;SDS011;13247;47.504;7.382;2024-03-02T15:36:54;3.13;;;2.00;;
21816;SDS011;13247;47.504;7.382;2024-03-02T15:39:38;2.13;;;1.48;;
21816;SDS011;13247;47.504;7.382;2024-03-02T15:42:23;2.63;;;1.23;;
21816;SDS011;13247;47.504;7.382;2024-03-02T15:45:08;2.53;;;1.00;;
21816;SDS011;13247;47.504;7.382;2024-03-02T15:47:53;2.03;;;1.15;;
21816;SDS011;13247;47.504;7.382;2024-03-02T15:50:38;2.65;;;1.40;;
21816;SDS011;13247;47.504;7.382;2024-03-02T15:53:22;3.58;;;1.13;;
21816;SDS011;13247;47.504;7.382;2024-03-02T15:56:08;3.28;;;1.23;;
21816;SDS011;13247;47.504;7.382;2024-03-02T15:58:53;1.15;;;1.02;;
21816;SDS011;13247;47.504;7.382;2024-03-02T16:01:38;1.85;;;1.30;;
21816;SDS011;13247;47.504;7.382;2024-03-02T16:04:22;1.83;;;1.23;;
21816;SDS011;13247;47.504;7.382;2024-03-02T16:07:08;2.17;;;1.40;;
21816;SDS011;13247;47.504;7.382;2024-03-02T16:09:52;3.50;;;1.27;;
21816;SDS011;13247;47.504;7.382;2024-03-02T16:12:40;1.83;;;1.17;;
21816;SDS011;13247;47.504;7.382;2024-03-02T16:15:24;2.05;;;1.58;;
21816;SDS011;13247;47.504;7.382;2024-03-02T16:18:12;1.63;;;1.33;;
21816;SDS011;13247;47.504;7.382;2024-03-02T16:20:57;3.17;;;1.50;;
21816;SDS011;13247;47.504;7.382;2024-03-02T16:23:41;3.75;;;1.48;;
21816;SDS011;13247;47.504;7.382;2024-03-02T16:26:26;2.65;;;1.20;;
21816;SDS011;13247;47.504;7.382;2024-03-02T16:29:10;2.03;;;1.30;;
21816;SDS011;13247;47.504;7.382;2024-03-02T16:31:55;2.10;;;1.52;;
21816;SDS011;13247;47.504;7.382;2024-03-02T16:34:40;2.50;;;1.50;;
21816;SDS011;13247;47.504;7.382;2024-03-02T16:37:25;2.55;;;1.35;;
21816;SDS011;13247;47.504;7.382;2024-03-02T16:40:10;2.53;;;1.50;;
21816;SDS011;13247;47.504;7.382;2024-03-02T16:42:57;2.53;;;1.83;;